createdAt,value
2022-07-29T00:02:26.915Z,53.22
2022-07-29T00:05:51.870Z,54.18
2022-07-29T00:09:15.859Z,54.12
2022-07-29T00:12:40.979Z,53.89
2022-07-29T00:16:05.232Z,53.35
2022-07-29T00:19:29.865Z,50.04
2022-07-29T00:22:57.890Z,49.98
2022-07-29T00:26:22.867Z,50.50
2022-07-29T00:29:46.884Z,48.77
2022-07-29T00:33:10.900Z,49.68
2022-07-29T00:36:35.887Z,50.04
2022-07-29T00:40:00.910Z,50.10
2022-07-29T00:43:24.919Z,50.04
2022-07-29T00:46:50.930Z,49.11
2022-07-29T00:50:14.929Z,49.35
2022-07-29T00:53:39.907Z,49.57
2022-07-29T00:57:06.596Z,50.14
2022-07-29T01:00:34.944Z,48.95
2022-07-29T01:03:58.904Z,48.69
2022-07-29T01:07:24.009Z,49.29
2022-07-29T01:10:47.865Z,49.95
2022-07-29T01:14:12.062Z,49.81
2022-07-29T01:17:53.600Z,49.93
2022-07-29T01:21:35.959Z,49.95
2022-07-29T01:25:18.860Z,49.91
2022-07-29T01:29:08.432Z,49.49
2022-07-29T01:32:40.877Z,50.53
2022-07-29T01:36:04.919Z,49.88
2022-07-29T01:39:42.885Z,50.62
2022-07-29T01:43:12.943Z,51.96
2022-07-29T01:46:51.002Z,50.60
2022-07-29T01:50:15.910Z,51.28
2022-07-29T01:54:19.291Z,52.47
2022-07-29T01:57:46.876Z,53.14
2022-07-29T02:01:11.926Z,54.16
2022-07-29T02:04:30.540Z,56.62
2022-07-29T02:07:49.933Z,55.37
2022-07-29T02:11:15.940Z,55.82
2022-07-29T02:14:39.915Z,55.36
2022-07-29T02:18:12.979Z,55.76
2022-07-29T02:21:39.958Z,55.89
2022-07-29T02:25:04.965Z,54.81
2022-07-29T02:28:29.932Z,56.61
2022-07-29T02:31:56.963Z,57.58
2022-07-29T02:35:20.892Z,59.09
2022-07-29T02:39:06.935Z,59.70
2022-07-29T02:42:34.915Z,60.96
2022-07-29T02:45:58.988Z,61.71
2022-07-29T02:49:53.916Z,64.92
2022-07-29T02:53:39.930Z,66.04
2022-07-29T02:57:04.936Z,66.36
2022-07-29T03:00:28.984Z,63.86
2022-07-29T03:03:53.936Z,63.79
2022-07-29T03:07:17.943Z,64.89
2022-07-29T03:10:42.985Z,62.49
2022-07-29T03:14:07.013Z,60.18
2022-07-29T03:17:32.939Z,57.78
2022-07-29T03:20:55.957Z,55.50
2022-07-29T03:24:19.942Z,54.61
2022-07-29T03:27:44.994Z,53.41
2022-07-29T03:31:09.004Z,55.26
2022-07-29T03:34:32.952Z,53.84
2022-07-29T03:37:57.968Z,55.13
2022-07-29T03:41:25.935Z,55.85
2022-07-29T03:44:50.923Z,55.65
2022-07-29T03:48:26.998Z,55.38
2022-07-29T03:51:50.962Z,54.53
2022-07-29T03:55:15.950Z,55.32
2022-07-29T03:58:39.922Z,55.49
2022-07-29T04:02:05.023Z,56.80
2022-07-29T04:05:30.968Z,57.49
2022-07-29T04:08:54.995Z,58.62
2022-07-29T04:12:19.967Z,58.07
2022-07-29T04:15:45.113Z,58.67
2022-07-29T04:19:10.003Z,59.56
2022-07-29T04:22:34.963Z,60.16
2022-07-29T04:25:58.970Z,61.16
2022-07-29T04:29:23.998Z,61.60
2022-07-29T04:32:48.999Z,61.90
2022-07-29T04:36:28.759Z,62.62
2022-07-29T04:39:54.002Z,63.66
2022-07-29T04:43:22.687Z,64.45
2022-07-29T04:46:49.087Z,64.06
2022-07-29T04:50:13.995Z,66.30
2022-07-29T04:53:37.979Z,66.13
2022-07-29T04:57:02.032Z,68.01
2022-07-29T05:00:32.081Z,68.91
2022-07-29T05:04:00.519Z,68.04
2022-07-29T05:07:25.023Z,67.07
2022-07-29T05:10:43.625Z,67.99
2022-07-29T05:14:00.972Z,67.87
2022-07-29T05:17:26.945Z,68.75
2022-07-29T05:20:51.017Z,69.37
2022-07-29T05:24:17.404Z,69.92
2022-07-29T05:27:42.031Z,69.86
2022-07-29T05:31:06.003Z,70.65
2022-07-29T05:34:30.021Z,71.21
2022-07-29T05:37:54.033Z,72.78
2022-07-29T05:41:18.043Z,73.23
2022-07-29T05:44:43.028Z,73.49
2022-07-29T05:48:06.998Z,74.62
2022-07-29T05:51:33.019Z,76.17
2022-07-29T05:54:58.013Z,74.33
2022-07-29T05:58:22.020Z,73.98
2022-07-29T06:01:48.145Z,74.39
2022-07-29T06:05:17.070Z,76.35
2022-07-29T06:08:43.062Z,76.38
2022-07-29T06:12:07.092Z,75.99
2022-07-29T06:15:30.988Z,76.08
2022-07-29T06:18:55.999Z,76.34
2022-07-29T06:22:19.978Z,76.72
2022-07-29T06:25:46.006Z,76.89
2022-07-29T06:29:11.026Z,76.64
2022-07-29T06:32:35.007Z,76.68
2022-07-29T06:35:59.991Z,75.43
2022-07-29T06:39:25.136Z,75.17
2022-07-29T06:42:48.995Z,75.78
2022-07-29T06:46:14.089Z,75.98
2022-07-29T06:49:38.996Z,75.94
2022-07-29T06:53:03.074Z,76.40
2022-07-29T06:56:27.014Z,77.14
2022-07-29T06:59:51.044Z,77.90
2022-07-29T07:03:15.000Z,77.69
2022-07-29T07:06:39.099Z,79.38
2022-07-29T07:10:03.015Z,80.18
2022-07-29T07:13:27.108Z,81.81
2022-07-29T07:16:52.623Z,82.49
2022-07-29T07:20:21.076Z,82.85
2022-07-29T07:23:44.981Z,83.72
2022-07-29T07:27:11.047Z,83.30
2022-07-29T07:30:36.050Z,84.54
2022-07-29T07:34:01.034Z,83.88
2022-07-29T07:37:27.996Z,84.89
2022-07-29T07:40:55.039Z,83.43
2022-07-29T07:44:20.234Z,83.14
2022-07-29T07:47:46.087Z,82.67
2022-07-29T07:51:11.044Z,82.68
2022-07-29T07:54:35.038Z,83.21
2022-07-29T07:58:02.125Z,83.71
2022-07-29T08:01:28.150Z,83.80
2022-07-29T08:04:52.060Z,84.44
2022-07-29T08:08:17.015Z,85.47
2022-07-29T08:11:41.058Z,86.05
2022-07-29T08:15:10.164Z,85.93
2022-07-29T08:18:27.107Z,87.10
2022-07-29T08:21:52.287Z,87.37
2022-07-29T08:25:17.118Z,87.38
2022-07-29T08:28:41.054Z,87.79
2022-07-29T08:32:05.146Z,87.32
2022-07-29T08:35:33.321Z,87.91
2022-07-29T08:38:59.062Z,88.48
2022-07-29T08:42:26.076Z,88.26
2022-07-29T08:46:04.093Z,88.42
2022-07-29T08:49:28.114Z,88.18
2022-07-29T08:52:59.362Z,88.06
2022-07-29T08:56:26.089Z,89.49
2022-07-29T08:59:50.060Z,89.36
2022-07-29T09:03:15.157Z,89.73
2022-07-29T09:06:40.068Z,89.82
2022-07-29T09:10:05.083Z,90.05
2022-07-29T09:13:29.113Z,89.88
2022-07-29T09:17:01.518Z,90.02
2022-07-29T09:20:33.065Z,91.01
2022-07-29T09:24:13.131Z,91.53
2022-07-29T09:27:42.072Z,91.16
2022-07-29T09:31:16.199Z,91.10
2022-07-29T09:34:42.044Z,90.36
2022-07-29T09:38:07.256Z,90.81
2022-07-29T09:41:32.054Z,91.57
2022-07-29T09:45:04.158Z,91.49
2022-07-29T09:48:33.130Z,91.71
2022-07-29T09:51:57.110Z,91.40
2022-07-29T09:55:25.109Z,92.21
2022-07-29T09:58:49.117Z,91.99
2022-07-29T10:02:13.069Z,92.14
2022-07-29T10:05:39.130Z,92.31
2022-07-29T10:09:03.060Z,92.53
2022-07-29T10:12:28.098Z,93.14
2022-07-29T10:15:55.163Z,92.48
2022-07-29T10:19:19.148Z,93.12
2022-07-29T10:22:53.074Z,93.23
2022-07-29T10:26:21.092Z,92.96
2022-07-29T10:29:45.110Z,92.90
2022-07-29T10:33:27.122Z,92.30
2022-07-29T10:37:02.158Z,92.68
2022-07-29T10:41:08.604Z,93.11
2022-07-29T10:44:36.109Z,94.55
2022-07-29T10:48:02.109Z,94.94
2022-07-29T10:51:27.137Z,94.37
2022-07-29T10:55:07.118Z,93.79
2022-07-29T10:58:39.073Z,93.94
2022-07-29T11:02:27.948Z,94.44
2022-07-29T11:06:12.073Z,94.53
2022-07-29T11:09:39.152Z,95.71
2022-07-29T11:13:03.113Z,95.87
2022-07-29T11:16:27.118Z,95.72
2022-07-29T11:19:51.018Z,95.35
2022-07-29T11:23:10.143Z,94.56
2022-07-29T11:26:35.161Z,95.35
2022-07-29T11:30:06.163Z,95.14
2022-07-29T11:33:55.956Z,94.34
2022-07-29T11:37:28.281Z,94.50
2022-07-29T11:40:54.142Z,96.35
2022-07-29T11:44:20.135Z,95.32
2022-07-29T11:47:49.161Z,95.92
2022-07-29T11:51:15.154Z,96.09
2022-07-29T11:54:57.815Z,97.02
2022-07-29T11:58:22.112Z,96.76
2022-07-29T12:01:49.167Z,96.87
2022-07-29T12:05:14.479Z,96.66
2022-07-29T12:08:40.160Z,96.66
2022-07-29T12:12:13.146Z,95.50
2022-07-29T12:15:45.644Z,96.97
2022-07-29T12:19:18.140Z,97.81
2022-07-29T12:22:49.174Z,97.35
2022-07-29T12:26:21.777Z,96.76
2022-07-29T12:29:48.027Z,96.67
2022-07-29T12:33:15.122Z,97.17
2022-07-29T12:36:40.192Z,97.38
2022-07-29T12:40:07.163Z,97.46
2022-07-29T12:43:35.131Z,97.40
2022-07-29T12:46:59.175Z,97.45
2022-07-29T12:50:29.130Z,97.09
2022-07-29T12:53:53.182Z,97.10
2022-07-29T12:57:19.959Z,97.45
2022-07-29T13:00:44.201Z,97.07
2022-07-29T13:04:15.159Z,97.26
2022-07-29T13:07:55.916Z,97.20
2022-07-29T13:11:23.208Z,97.58
2022-07-29T13:14:49.179Z,97.98
2022-07-29T13:18:16.488Z,98.11
2022-07-29T13:21:43.139Z,98.56
2022-07-29T13:25:11.216Z,98.36
2022-07-29T13:28:36.120Z,97.29
2022-07-29T13:32:00.830Z,97.29
2022-07-29T13:35:26.132Z,97.41
2022-07-29T13:38:50.216Z,97.65
2022-07-29T13:42:14.165Z,96.78
2022-07-29T13:45:38.262Z,97.58
2022-07-29T13:49:02.221Z,98.08
2022-07-29T13:52:26.210Z,99.09
2022-07-29T13:55:50.151Z,98.26
2022-07-29T13:59:14.204Z,98.98
2022-07-29T14:02:40.178Z,97.60
2022-07-29T14:06:05.182Z,98.03
2022-07-29T14:09:30.181Z,98.00
2022-07-29T14:13:05.144Z,98.44
2022-07-29T14:16:29.236Z,98.31
2022-07-29T14:19:54.183Z,97.74
2022-07-29T14:23:18.228Z,97.44
2022-07-29T14:26:37.874Z,98.03
2022-07-29T14:29:55.195Z,97.64
2022-07-29T14:33:20.150Z,97.93
2022-07-29T14:36:44.184Z,97.92
2022-07-29T14:40:12.195Z,97.98
2022-07-29T14:43:37.265Z,97.68
2022-07-29T14:47:01.183Z,97.63
2022-07-29T14:50:31.608Z,97.89
2022-07-29T14:53:56.211Z,98.62
2022-07-29T14:57:22.172Z,98.48
2022-07-29T15:00:46.238Z,98.96
2022-07-29T15:04:10.231Z,98.51
2022-07-29T15:07:36.199Z,98.96
2022-07-29T15:11:00.200Z,99.09
2022-07-29T15:14:26.164Z,98.94
2022-07-29T15:17:51.186Z,99.05
2022-07-29T15:21:18.190Z,99.02
2022-07-29T15:24:42.338Z,99.07
2022-07-29T15:28:04.609Z,99.04
2022-07-29T15:31:23.216Z,98.88
2022-07-29T15:34:47.218Z,99.14
2022-07-29T15:38:11.214Z,98.83
2022-07-29T15:41:36.251Z,98.75
2022-07-29T15:45:00.215Z,98.50
2022-07-29T15:48:26.202Z,98.33
2022-07-29T15:51:50.225Z,98.56
2022-07-29T15:55:15.211Z,99.19
2022-07-29T15:58:39.191Z,98.98
2022-07-29T16:02:03.241Z,98.34
2022-07-29T16:05:27.209Z,97.72
2022-07-29T16:08:51.216Z,98.83
2022-07-29T16:12:17.241Z,97.58
2022-07-29T16:15:43.177Z,97.99
2022-07-29T16:19:07.458Z,98.56
2022-07-29T16:22:31.258Z,98.36
2022-07-29T16:26:00.183Z,98.54
2022-07-29T16:29:27.197Z,99.11
2022-07-29T16:32:53.188Z,99.73
2022-07-29T16:36:18.491Z,99.61
2022-07-29T16:39:44.196Z,99.39
2022-07-29T16:43:08.261Z,100.00
2022-07-29T16:46:33.313Z,98.86
2022-07-29T16:49:57.371Z,98.94
2022-07-29T16:53:21.237Z,99.46
2022-07-29T16:56:45.212Z,98.82
2022-07-29T17:00:10.185Z,98.54
2022-07-29T17:03:35.208Z,98.66
2022-07-29T17:06:59.566Z,98.56
2022-07-29T17:10:25.263Z,99.07
2022-07-29T17:13:52.185Z,98.71
2022-07-29T17:17:16.729Z,98.32
2022-07-29T17:20:54.197Z,99.94
2022-07-29T17:24:18.254Z,99.96
2022-07-29T17:27:43.246Z,100.00
2022-07-29T17:31:06.264Z,100.00
2022-07-29T17:34:31.283Z,100.00
2022-07-29T17:37:55.279Z,100.00
2022-07-29T17:41:20.266Z,100.00
2022-07-29T17:44:44.399Z,100.00
2022-07-29T17:48:08.201Z,100.00
2022-07-29T17:51:32.243Z,100.00
2022-07-29T17:54:57.205Z,100.00
2022-07-29T17:58:22.245Z,100.00
2022-07-29T18:01:48.292Z,100.00
2022-07-29T18:05:12.291Z,99.83
2022-07-29T18:08:37.243Z,100.00
2022-07-29T18:12:01.240Z,99.94
2022-07-29T18:15:26.194Z,99.99
2022-07-29T18:18:50.238Z,100.00
2022-07-29T18:22:15.256Z,99.86
2022-07-29T18:25:39.315Z,99.69
2022-07-29T18:29:03.199Z,99.12
2022-07-29T18:32:29.414Z,98.58
2022-07-29T18:36:10.699Z,99.41
2022-07-29T18:39:37.319Z,98.50
2022-07-29T18:43:01.246Z,99.15
2022-07-29T18:46:26.311Z,99.25
2022-07-29T18:49:51.225Z,99.33
2022-07-29T18:53:15.253Z,99.04
2022-07-29T18:56:39.248Z,99.00
2022-07-29T19:00:04.258Z,100.00
2022-07-29T19:03:28.283Z,99.68
2022-07-29T19:06:52.264Z,98.92
2022-07-29T19:10:17.271Z,98.88
2022-07-29T19:13:42.286Z,98.75
2022-07-29T19:17:06.275Z,98.39
2022-07-29T19:20:30.265Z,98.03
2022-07-29T19:24:01.844Z,98.02
2022-07-29T19:27:32.250Z,97.75
2022-07-29T19:30:57.297Z,98.14
2022-07-29T19:34:21.423Z,98.06
2022-07-29T19:37:45.236Z,97.73
2022-07-29T19:41:10.342Z,97.99
2022-07-29T19:44:34.227Z,97.46
2022-07-29T19:48:01.490Z,97.57
2022-07-29T19:51:26.276Z,97.67
2022-07-29T19:54:50.265Z,97.38
2022-07-29T19:58:14.319Z,96.79
2022-07-29T20:01:40.304Z,98.24
2022-07-29T20:05:04.308Z,97.92
2022-07-29T20:08:29.297Z,97.71
2022-07-29T20:11:53.260Z,97.08
2022-07-29T20:15:18.289Z,98.08
2022-07-29T20:18:42.280Z,100.00
2022-07-29T20:22:06.281Z,100.00
2022-07-29T20:25:31.283Z,99.19
2022-07-29T20:28:55.475Z,98.99
2022-07-29T20:32:20.229Z,99.73
2022-07-29T20:35:44.319Z,99.11
2022-07-29T20:39:08.249Z,99.75
2022-07-29T20:42:32.328Z,99.03
2022-07-29T20:45:56.300Z,98.99
2022-07-29T20:49:20.296Z,98.20
2022-07-29T20:52:48.322Z,99.85
2022-07-29T20:56:12.367Z,97.84
2022-07-29T20:59:36.343Z,98.63
2022-07-29T21:03:00.386Z,97.52
2022-07-29T21:06:24.272Z,97.97
2022-07-29T21:09:48.358Z,98.39
2022-07-29T21:13:13.280Z,96.46
2022-07-29T21:16:40.377Z,95.88
2022-07-29T21:20:04.276Z,95.39
2022-07-29T21:23:28.337Z,94.65
2022-07-29T21:27:18.240Z,93.03
2022-07-29T21:30:37.306Z,92.96
2022-07-29T21:34:02.340Z,92.87
2022-07-29T21:37:20.962Z,91.99
2022-07-29T21:40:39.308Z,92.93
2022-07-29T21:44:03.319Z,89.62
2022-07-29T21:47:28.411Z,86.23
2022-07-29T21:50:53.306Z,85.03
2022-07-29T21:54:18.366Z,82.59
2022-07-29T21:57:46.302Z,80.70
2022-07-29T22:01:11.408Z,78.81
2022-07-29T22:04:35.406Z,77.27
2022-07-29T22:07:59.355Z,75.67
2022-07-29T22:11:23.340Z,75.50
2022-07-29T22:14:48.359Z,72.41
2022-07-29T22:18:13.291Z,71.18
2022-07-29T22:21:45.307Z,70.87
2022-07-29T22:25:10.293Z,72.55
2022-07-29T22:28:34.365Z,68.94
2022-07-29T22:31:58.320Z,70.38
2022-07-29T22:35:22.377Z,68.16
2022-07-29T22:38:39.985Z,71.44
2022-07-29T22:41:57.336Z,69.50
2022-07-29T22:45:21.342Z,70.73
2022-07-29T22:48:46.414Z,69.53
2022-07-29T22:52:10.367Z,66.30
2022-07-29T22:55:35.323Z,68.15
2022-07-29T22:58:59.334Z,69.28
2022-07-29T23:02:24.356Z,66.75
2022-07-29T23:05:49.302Z,65.70
2022-07-29T23:09:13.356Z,65.57
2022-07-29T23:12:37.346Z,67.15
2022-07-29T23:16:02.386Z,63.64
2022-07-29T23:19:26.297Z,66.57
2022-07-29T23:22:52.358Z,64.69
2022-07-29T23:26:17.294Z,66.06
2022-07-29T23:29:42.403Z,66.46
2022-07-29T23:33:06.360Z,62.47
2022-07-29T23:36:31.402Z,62.53
2022-07-29T23:39:48.900Z,64.26
2022-07-29T23:43:08.537Z,62.52
2022-07-29T23:46:34.393Z,61.51
2022-07-29T23:49:58.410Z,59.60
2022-07-29T23:53:23.365Z,63.63
2022-07-29T23:56:48.354Z,61.97
